Time;durP1;ratioP1;P1;durP2;ratioP2;P2;SDS_P1;SDS_P2;PMS_P1;PMS_P2;Temp;Humidity;BMP_temperature;BMP_pressure;BME280_temperature;BME280_humidity;BME280_pressure;Samples;Min_cycle;Max_cycle;Signal;HPM_P1;HPM_P2
2023/07/25 00:12:08;;;;;;;13.63;4.55;;;11.40;99.90;;;;;;5037955;28;20044;-24
2023/07/25 00:14:34;;;;;;;13.23;4.10;;;11.30;99.90;;;;;;5036877;28;20041;-24
2023/07/25 00:17:01;;;;;;;11.25;4.38;;;11.30;99.90;;;;;;5038390;28;20067;-24
2023/07/25 00:19:27;;;;;;;11.23;4.20;;;11.20;99.90;;;;;;5055286;28;20041;-24
2023/07/25 00:40:46;;;;;;;13.63;4.75;;;11.00;99.90;;;;;;5033691;28;20064;-24
2023/07/25 00:43:12;;;;;;;11.65;4.40;;;11.10;99.90;;;;;;5018437;28;20450;-24
2023/07/25 00:45:38;;;;;;;16.13;5.13;;;11.10;99.90;;;;;;5035078;28;20038;-24
2023/07/25 00:48:04;;;;;;;13.40;5.13;;;11.10;99.90;;;;;;5034345;28;20055;-24
2023/07/25 00:50:30;;;;;;;13.95;5.28;;;11.20;99.90;;;;;;5035526;28;20049;-25
2023/07/25 00:52:58;;;;;;;19.88;5.05;;;11.20;99.90;;;;;;5035749;28;20048;-25
2023/07/25 00:55:23;;;;;;;19.10;5.32;;;11.20;99.90;;;;;;5036361;28;20114;-24
2023/07/25 00:57:50;;;;;;;16.40;5.35;;;11.10;99.90;;;;;;5040535;28;20045;-24
2023/07/25 01:00:16;;;;;;;13.70;5.28;;;11.10;99.90;;;;;;5054550;28;20123;-24
2023/07/25 01:02:44;;;;;;;10.85;4.65;;;11.00;99.90;;;;;;5053485;28;20486;-24
2023/07/25 01:05:10;;;;;;;12.57;5.05;;;10.90;99.90;;;;;;5055617;28;20049;-24
2023/07/25 01:07:40;;;;;;;20.05;5.65;;;10.90;99.90;;;;;;5055188;28;20506;-25
2023/07/25 01:10:15;;;;;;;16.92;5.00;;;10.90;99.90;;;;;;5048580;28;20053;-24
2023/07/25 01:12:40;;;;;;;13.30;4.82;;;10.80;99.90;;;;;;5019408;28;20395;-24
2023/07/25 01:15:07;;;;;;;12.48;4.93;;;10.80;99.90;;;;;;4985351;28;20045;-24
2023/07/25 01:17:33;;;;;;;9.52;3.97;;;10.80;99.90;;;;;;5010033;28;20049;-24
2023/07/25 01:19:59;;;;;;;13.43;5.20;;;10.90;99.90;;;;;;5036507;28;20052;-24
2023/07/25 01:22:26;;;;;;;16.92;5.57;;;11.20;99.90;;;;;;5054465;28;20048;-25
2023/07/25 01:24:54;;;;;;;16.40;4.85;;;11.40;99.90;;;;;;5037513;28;20067;-25
2023/07/25 01:27:20;;;;;;;13.77;4.63;;;11.70;99.90;;;;;;5055129;28;20149;-25
2023/07/25 01:29:46;;;;;;;14.20;5.10;;;11.80;99.90;;;;;;5047031;28;20503;-25
2023/07/25 01:32:12;;;;;;;16.25;4.60;;;11.90;99.90;;;;;;5035107;28;20131;-25
2023/07/25 01:34:38;;;;;;;10.10;3.88;;;12.00;99.90;;;;;;5033938;28;20391;-24
2023/07/25 01:37:08;;;;;;;11.93;5.10;;;12.00;99.90;;;;;;5017510;28;20613;-25
2023/07/25 01:39:34;;;;;;;15.60;4.38;;;12.10;99.90;;;;;;5033526;28;20081;-24
2023/07/25 01:41:59;;;;;;;15.40;4.40;;;12.10;99.90;;;;;;5034950;28;20522;-25
2023/07/25 01:44:25;;;;;;;17.17;4.45;;;12.10;99.90;;;;;;5049902;28;20045;-25
2023/07/25 01:46:51;;;;;;;13.65;4.45;;;12.10;99.90;;;;;;5039170;28;20480;-25
2023/07/25 01:49:17;;;;;;;11.82;5.05;;;12.00;99.90;;;;;;5041495;28;20052;-25
2023/07/25 01:51:42;;;;;;;14.48;4.35;;;11.80;99.90;;;;;;5034719;28;20467;-24
2023/07/25 01:54:08;;;;;;;12.93;4.18;;;11.70;99.90;;;;;;5034738;28;20045;-25
2023/07/25 01:56:34;;;;;;;13.13;3.97;;;11.60;99.90;;;;;;5034199;28;20057;-24
2023/07/25 01:59:00;;;;;;;8.95;3.80;;;11.40;99.90;;;;;;5034992;28;20045;-25
2023/07/25 02:01:25;;;;;;;13.63;4.82;;;11.50;99.90;;;;;;5036886;28;20094;-25
2023/07/25 02:03:51;;;;;;;11.55;4.20;;;11.50;99.90;;;;;;5031617;28;20041;-25
2023/07/25 02:06:17;;;;;;;12.55;4.22;;;11.50;99.90;;;;;;5032999;28;20045;-24
2023/07/25 02:08:42;;;;;;;11.45;4.60;;;11.50;99.90;;;;;;5033476;28;20391;-25
2023/07/25 02:11:08;;;;;;;10.75;4.80;;;11.50;99.90;;;;;;5034107;28;20049;-26
2023/07/25 02:13:34;;;;;;;10.15;4.90;;;11.50;99.90;;;;;;5033420;28;20045;-25
2023/07/25 02:16:00;;;;;;;10.57;4.15;;;11.50;99.90;;;;;;5034334;28;20139;-25
2023/07/25 02:18:25;;;;;;;14.75;4.70;;;11.50;99.90;;;;;;5036594;28;20071;-25
2023/07/25 02:20:51;;;;;;;17.17;4.90;;;11.60;99.90;;;;;;5042012;28;20085;-25
2023/07/25 02:23:17;;;;;;;12.38;4.57;;;11.60;99.90;;;;;;5034487;28;20048;-25
2023/07/25 02:25:45;;;;;;;11.70;4.85;;;11.70;99.90;;;;;;5037235;28;20165;-25
2023/07/25 02:28:11;;;;;;;9.90;4.63;;;11.80;99.90;;;;;;5053013;28;20055;-25
2023/07/25 02:30:36;;;;;;;10.25;5.20;;;11.80;99.90;;;;;;5048121;28;20495;-25
2023/07/25 02:33:02;;;;;;;11.63;4.50;;;11.90;99.90;;;;;;5033690;28;20046;-25
2023/07/25 02:35:30;;;;;;;12.27;5.18;;;11.90;99.90;;;;;;5032561;28;20081;-25
2023/07/25 02:37:56;;;;;;;11.38;4.30;;;11.90;99.90;;;;;;5033051;28;20052;-25
2023/07/25 02:40:21;;;;;;;11.00;4.63;;;11.90;99.90;;;;;;5033224;28;20062;-25
2023/07/25 02:42:47;;;;;;;16.05;5.03;;;12.00;99.90;;;;;;5032684;28;20126;-24
2023/07/25 02:45:13;;;;;;;20.23;5.57;;;12.10;99.90;;;;;;5034732;28;20087;-25
2023/07/25 02:47:38;;;;;;;10.70;3.67;;;12.00;99.90;;;;;;5033460;28;20438;-25
2023/07/25 02:50:05;;;;;;;9.45;4.00;;;12.10;99.90;;;;;;5034646;28;20053;-25
2023/07/25 02:52:30;;;;;;;14.98;4.70;;;12.10;99.90;;;;;;5033466;28;20372;-25
2023/07/25 02:54:56;;;;;;;14.43;4.50;;;12.20;99.90;;;;;;5042473;28;20059;-25
2023/07/25 02:57:22;;;;;;;14.65;4.45;;;12.30;99.90;;;;;;5036925;28;20052;-25
2023/07/25 02:59:47;;;;;;;20.70;4.90;;;12.30;99.90;;;;;;5053685;28;20045;-25
2023/07/25 03:02:21;;;;;;;20.58;4.50;;;12.40;99.90;;;;;;5047292;28;20498;-26
2023/07/25 03:04:47;;;;;;;14.18;4.75;;;12.50;99.90;;;;;;5033349;28;20052;-25
2023/07/25 03:07:13;;;;;;;16.40;4.32;;;12.70;99.90;;;;;;5033617;28;20395;-25
2023/07/25 03:09:41;;;;;;;11.30;4.30;;;12.80;99.90;;;;;;5033624;28;20092;-25
2023/07/25 03:12:07;;;;;;;17.10;4.50;;;12.70;99.90;;;;;;5033533;28;20447;-25
2023/07/25 03:14:33;;;;;;;16.13;4.40;;;12.70;99.90;;;;;;5042045;28;20044;-24
2023/07/25 03:16:58;;;;;;;11.20;3.97;;;12.60;99.90;;;;;;5052522;28;20037;-25
2023/07/25 03:19:27;;;;;;;19.83;4.25;;;12.50;99.90;;;;;;5053429;28;20048;-24
2023/07/25 03:21:52;;;;;;;11.15;4.30;;;12.30;99.90;;;;;;5052201;28;20099;-25
2023/07/25 03:24:20;;;;;;;13.65;4.57;;;12.20;99.90;;;;;;5040314;28;20045;-25
2023/07/25 03:26:46;;;;;;;14.95;4.15;;;12.00;99.90;;;;;;5054122;28;20103;-25
2023/07/25 03:29:12;;;;;;;18.90;4.40;;;11.80;99.90;;;;;;5053347;28;20053;-25
2023/07/25 03:31:38;;;;;;;15.13;4.53;;;11.70;99.90;;;;;;5052283;28;20045;-25
2023/07/25 03:34:07;;;;;;;12.15;4.38;;;11.60;99.90;;;;;;5045915;28;20404;-25
2023/07/25 03:36:33;;;;;;;16.50;4.78;;;11.60;99.90;;;;;;5031693;28;20053;-24
2023/07/25 03:38:58;;;;;;;14.27;5.03;;;11.60;99.90;;;;;;5041350;28;20049;-25
2023/07/25 03:41:24;;;;;;;19.02;5.45;;;11.50;99.90;;;;;;5051779;28;20061;-25
2023/07/25 03:43:52;;;;;;;14.88;4.55;;;11.50;99.90;;;;;;5052326;28;20045;-25
2023/07/25 03:46:18;;;;;;;12.93;4.53;;;11.40;99.90;;;;;;5056667;28;20056;-24
2023/07/25 03:48:43;;;;;;;14.18;4.97;;;11.40;99.90;;;;;;5049652;28;20049;-24
2023/07/25 03:51:09;;;;;;;15.13;4.68;;;11.40;99.90;;;;;;5032859;28;20049;-25
2023/07/25 03:53:42;;;;;;;14.80;4.85;;;11.30;99.90;;;;;;5033291;28;20041;-25
2023/07/25 03:56:08;;;;;;;15.70;6.10;;;11.30;99.90;;;;;;5031928;28;20067;-24
2023/07/25 03:58:34;;;;;;;13.73;5.00;;;11.20;99.90;;;;;;5033114;28;20483;-25
2023/07/25 04:01:00;;;;;;;10.85;4.97;;;11.20;99.90;;;;;;5033131;28;20049;-25
2023/07/25 04:03:25;;;;;;;13.48;5.55;;;11.10;99.90;;;;;;5032139;28;20053;-24
2023/07/25 04:05:51;;;;;;;16.48;5.30;;;11.00;99.90;;;;;;5031711;28;20045;-25
2023/07/25 04:08:17;;;;;;;12.73;4.68;;;10.90;99.90;;;;;;5033614;28;20387;-24
2023/07/25 04:10:43;;;;;;;12.88;4.72;;;10.70;99.90;;;;;;5031854;28;20679;-25
2023/07/25 04:13:09;;;;;;;12.23;3.72;;;10.70;99.90;;;;;;5031760;28;20137;-24
2023/07/25 04:15:41;;;;;;;11.65;4.07;;;10.60;99.90;;;;;;5032623;28;20041;-24
2023/07/25 04:18:07;;;;;;;14.07;3.85;;;10.50;99.90;;;;;;5033292;28;20483;-24
2023/07/25 04:20:33;;;;;;;10.20;3.05;;;10.40;99.90;;;;;;5017419;28;20165;-24
2023/07/25 04:22:58;;;;;;;11.50;3.65;;;10.40;99.90;;;;;;5035893;28;20114;-24
2023/07/25 04:25:24;;;;;;;7.47;3.50;;;10.30;99.90;;;;;;5036457;28;20550;-24
2023/07/25 04:27:50;;;;;;;11.60;3.22;;;10.20;99.90;;;;;;5034608;28;20045;-24
2023/07/25 04:30:15;;;;;;;11.43;3.13;;;10.20;99.90;;;;;;5036302;28;20041;-24
2023/07/25 04:32:46;;;;;;;9.85;3.50;;;10.10;99.90;;;;;;5002314;28;20053;-24
2023/07/25 04:35:11;;;;;;;9.80;3.65;;;10.10;99.90;;;;;;5035912;28;20049;-24
2023/07/25 04:37:37;;;;;;;12.38;3.72;;;10.20;99.90;;;;;;5042431;28;20114;-24
2023/07/25 04:40:03;;;;;;;9.40;3.53;;;10.20;99.90;;;;;;5054759;28;20510;-24
2023/07/25 04:42:29;;;;;;;12.85;3.60;;;10.30;99.90;;;;;;5056654;28;20128;-24
2023/07/25 04:44:55;;;;;;;15.80;3.53;;;10.40;99.90;;;;;;5024614;28;20124;-24
2023/07/25 04:47:20;;;;;;;6.78;3.67;;;10.60;99.90;;;;;;5019128;28;20084;-25
2023/07/25 04:49:46;;;;;;;11.65;4.45;;;10.80;99.90;;;;;;5054762;28;20041;-24
2023/07/25 04:52:12;;;;;;;12.30;3.28;;;10.90;99.90;;;;;;5046812;28;20041;-25
2023/07/25 04:54:40;;;;;;;11.68;3.38;;;11.00;99.90;;;;;;5034673;28;20049;-24
2023/07/25 04:57:06;;;;;;;8.35;3.30;;;11.00;99.90;;;;;;5018504;28;20107;-24
2023/07/25 04:59:32;;;;;;;12.00;3.17;;;11.10;99.90;;;;;;5050328;28;20053;-24
2023/07/25 05:02:00;;;;;;;10.55;3.28;;;11.10;99.90;;;;;;5054563;28;20052;-24
2023/07/25 05:04:25;;;;;;;14.57;3.63;;;11.10;99.90;;;;;;5054771;28;20041;-24
2023/07/25 05:06:53;;;;;;;9.80;3.17;;;11.20;99.90;;;;;;5047606;28;20462;-25
2023/07/25 05:09:19;;;;;;;12.25;3.10;;;11.20;99.90;;;;;;5018496;28;20110;-25
2023/07/25 05:11:47;;;;;;;13.60;3.10;;;11.30;99.90;;;;;;5033802;28;20124;-25
2023/07/25 05:14:15;;;;;;;12.90;3.50;;;11.40;99.90;;;;;;5035467;28;20057;-24
2023/07/25 05:16:41;;;;;;;17.25;4.00;;;11.50;99.90;;;;;;5055427;28;20056;-25
2023/07/25 05:19:11;;;;;;;10.98;3.38;;;11.60;99.90;;;;;;5051084;28;20037;-25
2023/07/25 05:21:39;;;;;;;13.98;4.03;;;11.80;99.90;;;;;;5033775;28;20049;-25
2023/07/25 05:24:05;;;;;;;8.73;3.15;;;12.00;99.90;;;;;;5040663;28;20044;-25
2023/07/25 05:26:31;;;;;;;13.13;3.70;;;12.20;99.90;;;;;;5054146;28;20051;-25
2023/07/25 05:28:57;;;;;;;12.27;3.78;;;12.40;99.90;;;;;;5053685;28;20501;-25
2023/07/25 05:31:23;;;;;;;7.68;2.42;;;12.60;99.90;;;;;;5052128;28;20045;-26
2023/07/25 05:33:48;;;;;;;9.05;2.40;;;13.00;99.90;;;;;;5053840;28;20045;-25
2023/07/25 05:36:14;;;;;;;10.57;2.50;;;13.70;99.90;;;;;;5055063;28;20128;-25
2023/07/25 05:38:40;;;;;;;3.38;1.50;;;14.50;99.90;;;;;;5039100;28;20487;-25
2023/07/25 05:41:06;;;;;;;10.70;2.38;;;14.70;99.90;;;;;;5045642;28;20064;-25
2023/07/25 05:43:32;;;;;;;7.82;1.90;;;14.40;99.90;;;;;;5055448;28;20077;-25
2023/07/25 05:45:58;;;;;;;9.88;1.90;;;13.90;99.90;;;;;;5054860;28;20474;-25
2023/07/25 05:48:23;;;;;;;5.80;1.50;;;13.60;99.90;;;;;;5053615;28;20140;-24
2023/07/25 05:50:52;;;;;;;8.02;2.05;;;13.40;99.90;;;;;;5044906;28;20045;-24
2023/07/25 05:53:19;;;;;;;8.70;1.65;;;13.30;99.90;;;;;;5033383;28;20088;-24
2023/07/25 05:55:46;;;;;;;9.48;2.00;;;13.60;99.90;;;;;;5034749;28;20468;-24
2023/07/25 05:58:15;;;;;;;9.98;2.17;;;14.10;99.90;;;;;;5035525;28;20045;-25
2023/07/25 06:00:50;;;;;;;9.73;1.70;;;14.60;99.90;;;;;;5038874;28;20087;-24
2023/07/25 06:03:18;;;;;;;6.22;1.80;;;14.90;1.00;;;;;;5034634;28;20081;-24
2023/07/25 06:05:44;;;;;;;12.70;1.85;;;15.30;1.00;;;;;;5017734;28;20095;-24
2023/07/25 06:08:10;;;;;;;8.75;1.35;;;15.70;99.90;;;;;;5034533;28;20048;-24
2023/07/25 06:10:36;;;;;;;5.85;1.67;;;16.00;83.10;;;;;;5034492;28;20089;-24
2023/07/25 06:13:08;;;;;;;9.75;0.95;;;16.20;1.00;;;;;;5032234;28;20045;-24
2023/07/25 06:15:34;;;;;;;7.40;0.90;;;16.50;1.00;;;;;;5041863;28;20507;-24
2023/07/25 06:18:01;;;;;;;5.82;0.95;;;16.60;99.90;;;;;;5036583;28;20041;-24
2023/07/25 06:20:26;;;;;;;7.05;1.20;;;16.80;70.80;;;;;;5054497;28;20055;-24
2023/07/25 06:23:03;;;;;;;5.07;0.80;;;16.90;1.00;;;;;;5049362;28;20479;-23
2023/07/25 06:25:29;;;;;;;6.63;1.10;;;16.90;1.00;;;;;;5053217;28;20060;-24
2023/07/25 06:27:55;;;;;;;8.43;1.17;;;17.00;99.90;;;;;;5054074;28;20049;-24
2023/07/25 06:30:21;;;;;;;7.35;1.05;;;17.00;29.50;;;;;;5037335;28;20051;-24
2023/07/25 06:32:47;;;;;;;5.20;0.60;;;16.80;96.30;;;;;;5043821;28;20041;-24
2023/07/25 06:35:12;;;;;;;5.47;2.15;;;17.10;1.00;;;;;;5031129;28;20045;-24
2023/07/25 06:37:38;;;;;;;3.65;0.50;;;17.00;1.00;;;;;;5047215;28;20087;-24
2023/07/25 06:40:05;;;;;;;3.90;0.52;;;17.20;99.90;;;;;;5036187;28;20045;-24
2023/07/25 06:42:31;;;;;;;3.13;0.80;;;17.30;99.90;;;;;;5050833;28;20041;-24
2023/07/25 06:45:00;;;;;;;2.55;0.52;;;17.60;99.90;;;;;;5052601;28;20094;-24
2023/07/25 06:47:25;;;;;;;5.40;0.60;;;17.50;1.00;;;;;;5052288;28;20446;-23
2023/07/25 06:49:51;;;;;;;2.22;0.50;;;17.60;99.90;;;;;;5053400;28;20049;-24
2023/07/25 06:52:17;;;;;;;5.28;0.63;;;17.50;1.00;;;;;;5029335;28;20053;-24
2023/07/25 06:54:44;;;;;;;7.13;0.63;;;17.30;99.90;;;;;;5048437;28;20049;-25
2023/07/25 06:57:10;;;;;;;3.78;0.43;;;17.30;99.90;;;;;;5067373;28;20500;-24
2023/07/25 06:59:36;;;;;;;3.63;0.70;;;16.90;1.00;;;;;;5061556;28;20132;-23
2023/07/25 07:02:02;;;;;;;2.47;0.40;;;17.00;99.90;;;;;;5053905;28;20179;-23
2023/07/25 07:04:30;;;;;;;2.58;0.60;;;17.40;43.00;;;;;;5051299;28;20045;-23
2023/07/25 07:06:56;;;;;;;3.60;0.50;;;17.70;1.00;;;;;;5053534;28;20075;-24
2023/07/25 07:09:22;;;;;;;5.05;0.70;;;17.70;1.00;;;;;;5052663;28;20045;-23
2023/07/25 07:11:47;;;;;;;3.47;0.60;;;17.90;99.90;;;;;;5046054;28;20041;-23
2023/07/25 07:14:13;;;;;;;3.78;0.45;;;17.70;46.40;;;;;;5048967;28;20120;-24
2023/07/25 07:16:39;;;;;;;3.13;0.40;;;17.50;99.90;;;;;;5035210;28;20132;-24
2023/07/25 07:19:04;;;;;;;4.57;0.60;;;17.60;99.90;;;;;;5053465;28;20487;-23
2023/07/25 07:21:30;;;;;;;4.45;0.63;;;18.20;99.90;;;;;;5052184;28;20049;-23
2023/07/25 07:23:56;;;;;;;3.97;0.65;;;18.30;99.90;;;;;;5053206;28;20041;-24
2023/07/25 07:26:21;;;;;;;4.90;0.60;;;18.30;99.90;;;;;;5047781;28;20041;-24
2023/07/25 07:28:47;;;;;;;6.63;0.55;;;18.10;1.00;;;;;;5037201;28;20045;-23
2023/07/25 07:31:15;;;;;;;2.22;0.73;;;17.80;99.90;;;;;;5038694;28;20128;-23
2023/07/25 07:33:40;;;;;;;5.93;0.60;;;16.90;99.90;;;;;;5033472;28;20053;-23
2023/07/25 07:36:06;;;;;;;4.32;0.55;;;16.20;1.00;;;;;;5034659;28;20106;-23
2023/07/25 07:38:32;;;;;;;5.07;0.50;;;16.50;21.80;;;;;;5053280;28;20049;-23
2023/07/25 07:40:58;;;;;;;3.83;0.45;;;17.30;1.00;;;;;;5052477;28;20534;-23
2023/07/25 07:43:24;;;;;;;2.92;0.50;;;18.00;99.90;;;;;;5035462;28;20049;-24
2023/07/25 07:45:49;;;;;;;2.70;0.75;;;18.50;1.00;;;;;;5032757;28;20065;-24
2023/07/25 07:48:16;;;;;;;4.63;0.50;;;18.30;1.00;;;;;;5033800;28;20045;-24
2023/07/25 07:50:43;;;;;;;2.90;0.75;;;18.30;1.00;;;;;;5015861;28;20088;-24
2023/07/25 07:53:09;;;;;;;6.13;0.70;;;18.00;1.00;;;;;;5016498;28;20103;-23
2023/07/25 07:55:35;;;;;;;3.65;1.17;;;18.00;1.00;;;;;;5037002;28;20049;-24
2023/07/25 07:58:03;;;;;;;2.47;0.45;;;18.00;73.20;;;;;;5036951;28;20049;-23
2023/07/25 08:00:31;;;;;;;2.38;0.77;;;18.00;99.90;;;;;;5036603;28;20478;-24
2023/07/25 08:02:57;;;;;;;4.75;0.88;;;17.90;1.00;;;;;;5039959;28;20038;-24
2023/07/25 08:05:23;;;;;;;5.05;0.98;;;18.20;21.60;;;;;;5052189;28;20049;-24
2023/07/25 08:07:48;;;;;;;2.60;0.45;;;18.30;99.90;;;;;;5037957;28;20050;-23
2023/07/25 08:10:14;;;;;;;6.53;0.63;;;18.60;20.00;;;;;;5057456;28;20049;-23
2023/07/25 08:12:40;;;;;;;4.65;0.60;;;18.50;1.00;;;;;;5056286;28;20052;-24
2023/07/25 08:15:06;;;;;;;4.55;0.73;;;18.20;99.90;;;;;;5055370;28;20453;-24
2023/07/25 08:17:32;;;;;;;6.00;0.93;;;18.10;1.00;;;;;;5039258;28;20084;-24
2023/07/25 08:19:59;;;;;;;3.65;0.57;;;17.90;99.90;;;;;;5041380;28;20077;-24
2023/07/25 08:22:25;;;;;;;2.75;0.50;;;18.20;93.70;;;;;;5036531;28;20041;-24
2023/07/25 08:24:55;;;;;;;4.47;0.98;;;18.10;99.90;;;;;;5036844;28;20045;-24
2023/07/25 08:27:20;;;;;;;3.50;0.60;;;17.90;99.90;;;;;;5036364;28;20053;-23
2023/07/25 08:29:46;;;;;;;6.20;0.88;;;18.30;99.90;;;;;;5036165;28;20046;-23
2023/07/25 08:32:13;;;;;;;3.40;0.55;;;18.80;36.30;;;;;;5036279;28;20041;-24
2023/07/25 08:34:39;;;;;;;2.50;0.70;;;19.10;1.00;;;;;;5036022;28;20495;-24
2023/07/25 08:37:06;;;;;;;4.65;1.80;;;19.40;99.90;;;;;;5036814;28;20053;-23
2023/07/25 08:39:33;;;;;;;1.98;0.40;;;18.70;99.90;;;;;;5036107;28;20057;-23
2023/07/25 08:42:02;;;;;;;4.28;0.75;;;18.20;1.00;;;;;;5049723;28;20052;-23
2023/07/25 08:44:28;;;;;;;3.15;0.80;;;18.80;1.00;;;;;;5055730;28;20457;-24
2023/07/25 08:46:55;;;;;;;7.30;1.60;;;19.30;99.90;;;;;;5055995;28;20053;-24
2023/07/25 08:49:23;;;;;;;3.47;0.60;;;19.60;99.90;;;;;;5056010;28;20395;-24
2023/07/25 08:51:52;;;;;;;4.32;0.90;;;20.20;99.90;;;;;;5038057;28;20080;-24
2023/07/25 08:54:32;;;;;;;5.60;0.50;;;20.10;99.90;;;;;;5018233;28;20175;-24
2023/07/25 08:57:02;;;;;;;4.00;0.75;;;19.00;99.90;;;;;;5036042;28;20118;-23
2023/07/25 08:59:28;;;;;;;2.70;0.40;;;18.70;1.00;;;;;;5035730;28;20117;-24
2023/07/25 09:01:54;;;;;;;4.93;0.68;;;18.50;99.90;;;;;;5034704;28;20598;-24
2023/07/25 09:04:22;;;;;;;5.72;0.88;;;18.30;1.00;;;;;;5036046;28;20048;-23
2023/07/25 09:06:47;;;;;;;5.20;0.40;;;18.50;12.20;;;;;;5035417;28;20053;-23
2023/07/25 09:09:13;;;;;;;3.08;0.73;;;18.50;1.00;;;;;;5035676;28;20045;-23
2023/07/25 09:11:39;;;;;;;7.38;0.80;;;17.60;99.90;;;;;;5035825;28;20045;-23
2023/07/25 09:14:05;;;;;;;4.00;0.63;;;17.30;99.90;;;;;;5035576;28;20399;-23
2023/07/25 09:16:31;;;;;;;6.30;0.70;;;17.00;99.90;;;;;;5036358;28;20041;-23
2023/07/25 09:18:57;;;;;;;2.10;0.47;;;16.80;99.90;;;;;;5034534;28;20498;-23
2023/07/25 09:21:23;;;;;;;2.92;0.68;;;16.70;99.90;;;;;;5035742;28;20052;-23
2023/07/25 09:23:53;;;;;;;5.53;0.80;;;17.50;99.90;;;;;;5035661;28;20128;-23
2023/07/25 09:26:22;;;;;;;4.55;1.00;;;18.60;99.90;;;;;;5035887;28;20056;-24
2023/07/25 09:28:52;;;;;;;6.45;0.77;;;19.90;96.30;;;;;;5035204;28;20103;-24
2023/07/25 09:31:19;;;;;;;6.28;1.00;;;19.80;1.00;;;;;;5035225;28;20045;-24
2023/07/25 09:33:53;;;;;;;5.25;0.75;;;19.20;1.00;;;;;;5038348;28;20054;-23
2023/07/25 09:36:19;;;;;;;4.18;0.80;;;18.10;1.00;;;;;;5049600;28;20053;-23
2023/07/25 09:38:53;;;;;;;4.75;0.60;;;18.00;99.90;;;;;;5055047;28;20048;-23
2023/07/25 09:41:20;;;;;;;5.60;0.85;;;18.60;99.90;;;;;;5055071;28;20060;-23
2023/07/25 09:43:46;;;;;;;6.25;1.10;;;18.90;82.70;;;;;;5045339;28;20041;-23
2023/07/25 09:46:12;;;;;;;6.75;1.50;;;18.80;99.90;;;;;;5035555;28;20045;-23
2023/07/25 09:48:51;;;;;;;4.97;1.05;;;18.80;99.90;;;;;;5035234;28;20045;-24
2023/07/25 09:51:16;;;;;;;6.07;0.85;;;18.50;1.00;;;;;;5034602;28;20403;-24
2023/07/25 09:53:44;;;;;;;5.40;0.73;;;18.30;96.70;;;;;;5033006;28;20046;-23
2023/07/25 09:56:10;;;;;;;3.13;0.82;;;17.70;99.90;;;;;;5035099;28;20056;-24
2023/07/25 09:58:37;;;;;;;5.85;0.60;;;17.00;99.90;;;;;;5034067;28;20049;-23
2023/07/25 10:01:06;;;;;;;5.80;1.17;;;16.90;99.90;;;;;;5034704;28;20045;-23
2023/07/25 10:03:32;;;;;;;4.32;0.77;;;16.90;99.90;;;;;;5034661;28;20041;-24
2023/07/25 10:05:58;;;;;;;3.20;0.50;;;17.40;99.90;;;;;;5047210;28;20123;-23
2023/07/25 10:08:26;;;;;;;4.38;0.65;;;18.00;52.70;;;;;;5053262;28;20093;-24
2023/07/25 10:10:55;;;;;;;3.90;0.52;;;18.50;4.80;;;;;;5054991;28;20074;-24
2023/07/25 10:13:21;;;;;;;3.63;0.60;;;19.10;1.00;;;;;;5055149;28;20055;-23
2023/07/25 10:15:49;;;;;;;6.40;0.90;;;19.70;99.90;;;;;;5040803;28;20050;-23
2023/07/25 10:18:22;;;;;;;4.28;0.77;;;20.60;99.90;;;;;;5034261;28;20056;-24
2023/07/25 10:20:49;;;;;;;5.50;0.70;;;20.90;99.90;;;;;;5034345;28;20133;-24
2023/07/25 10:23:15;;;;;;;4.07;0.90;;;21.20;99.90;;;;;;5033067;28;20054;-24
2023/07/25 10:25:44;;;;;;;5.35;1.08;;;20.90;98.60;;;;;;5035487;28;20045;-24
2023/07/25 10:28:11;;;;;;;6.40;0.95;;;19.30;99.90;;;;;;5034116;28;20076;-24
2023/07/25 10:30:41;;;;;;;2.58;0.57;;;18.30;99.90;;;;;;5034159;28;20044;-24
2023/07/25 10:33:08;;;;;;;5.60;0.60;;;18.90;1.00;;;;;;5034096;28;20049;-24
2023/07/25 10:35:49;;;;;;;2.78;0.50;;;19.70;1.00;;;;;;5033985;28;20045;-24
2023/07/25 10:38:21;;;;;;;3.88;0.63;;;20.10;99.90;;;;;;5032810;28;20055;-24
2023/07/25 10:40:49;;;;;;;4.85;0.47;;;19.70;99.90;;;;;;5033780;28;20610;-24
2023/07/25 10:43:16;;;;;;;2.72;0.43;;;18.90;99.90;;;;;;5037812;28;20057;-24
2023/07/25 10:45:44;;;;;;;3.67;1.00;;;18.30;99.90;;;;;;5053847;28;20053;-24
2023/07/25 10:48:30;;;;;;;4.13;0.70;;;17.90;1.00;;;;;;5052378;28;20041;-23
2023/07/25 10:50:56;;;;;;;7.78;0.98;;;18.40;99.90;;;;;;5053666;28;20446;-24
2023/07/25 10:53:24;;;;;;;4.90;0.60;;;19.20;1.00;;;;;;5053059;28;20384;-24
2023/07/25 10:56:05;;;;;;;6.60;0.75;;;19.90;99.90;;;;;;5053698;28;20045;-24
2023/07/25 10:58:35;;;;;;;2.38;0.50;;;19.30;82.60;;;;;;5033476;28;20056;-24
2023/07/25 11:01:01;;;;;;;2.03;0.50;;;18.70;99.90;;;;;;5033721;28;20491;-24
2023/07/25 11:03:32;;;;;;;4.78;0.70;;;18.70;93.80;;;;;;5033688;28;20088;-24
2023/07/25 11:06:06;;;;;;;5.20;0.77;;;18.90;1.00;;;;;;5033706;28;20054;-24
2023/07/25 11:08:37;;;;;;;7.43;1.80;;;19.00;99.90;;;;;;5033739;28;20369;-24
2023/07/25 11:11:09;;;;;;;2.88;0.77;;;18.70;99.90;;;;;;5033644;28;20407;-24
2023/07/25 11:13:36;;;;;;;1.80;0.40;;;18.20;99.90;;;;;;5032356;28;20045;-24
2023/07/25 11:16:03;;;;;;;2.92;0.50;;;17.90;99.90;;;;;;5033857;28;20056;-24
2023/07/25 11:18:35;;;;;;;3.20;0.63;;;18.10;1.00;;;;;;5042554;28;20423;-24
2023/07/25 11:21:03;;;;;;;2.35;0.55;;;18.10;1.00;;;;;;5033856;28;20049;-23
2023/07/25 11:23:29;;;;;;;9.10;0.60;;;18.20;99.90;;;;;;5039366;28;20049;-23
2023/07/25 11:25:56;;;;;;;4.47;0.40;;;18.20;1.00;;;;;;5056086;28;20124;-24
2023/07/25 11:28:22;;;;;;;3.90;0.50;;;18.10;1.00;;;;;;5053831;28;20084;-24
2023/07/25 11:30:48;;;;;;;3.83;0.55;;;18.10;1.00;;;;;;5057980;28;20545;-24
2023/07/25 11:33:13;;;;;;;2.88;0.50;;;18.10;1.00;;;;;;5057873;28;20048;-24
2023/07/25 11:35:39;;;;;;;1.38;0.28;;;17.80;99.90;;;;;;5053107;28;20131;-24
2023/07/25 11:38:05;;;;;;;1.90;0.55;;;17.80;1.00;;;;;;5039017;28;20518;-24
2023/07/25 11:40:31;;;;;;;3.88;0.50;;;17.80;1.00;;;;;;5037353;28;20111;-24
2023/07/25 11:42:57;;;;;;;5.65;1.17;;;17.80;15.40;;;;;;5037398;28;20048;-24
2023/07/25 11:45:24;;;;;;;3.25;0.60;;;17.70;1.00;;;;;;5036868;28;20052;-23
2023/07/25 11:47:51;;;;;;;2.35;0.50;;;17.70;1.00;;;;;;5037817;28;20053;-24
2023/07/25 11:50:20;;;;;;;1.52;0.30;;;17.60;1.00;;;;;;5037179;28;20041;-23
2023/07/25 11:52:47;;;;;;;2.42;0.57;;;17.60;31.80;;;;;;5036204;28;20042;-23
2023/07/25 11:55:13;;;;;;;3.47;0.55;;;17.70;99.90;;;;;;5037047;28;20045;-23
2023/07/25 11:57:42;;;;;;;4.38;0.55;;;17.70;99.90;;;;;;5037382;28;20049;-24
2023/07/25 12:00:15;;;;;;;2.67;0.60;;;17.70;1.00;;;;;;5037035;28;20128;-23
2023/07/25 12:02:41;;;;;;;;;;;18.00;1.00;;;;;;5041905;28;20092;-23
2023/07/25 12:05:08;;;;;;;2.38;0.50;;;18.30;99.90;;;;;;5057351;28;19924;-24
2023/07/25 12:07:53;;;;;;;4.30;0.68;;;18.80;99.90;;;;;;5048593;28;20392;-24
2023/07/25 12:10:33;;;;;;;3.17;0.40;;;19.20;99.90;;;;;;5035647;28;20407;-24
2023/07/25 12:13:03;;;;;;;4.10;0.88;;;19.50;99.90;;;;;;5037595;28;20378;-24
2023/07/25 12:15:46;;;;;;;2.72;0.60;;;19.30;99.90;;;;;;5050660;28;20471;-23
2023/07/25 12:18:32;;;;;;;4.68;0.85;;;18.50;99.90;;;;;;5036776;28;20050;-23
2023/07/25 12:21:01;;;;;;;3.08;0.80;;;18.20;1.00;;;;;;5039371;28;20491;-23
2023/07/25 12:23:30;;;;;;;3.45;0.50;;;18.20;1.00;;;;;;5053069;28;20413;-23
2023/07/25 12:25:59;;;;;;;3.30;0.45;;;18.20;1.00;;;;;;5040608;28;20052;-24
2023/07/25 12:28:25;;;;;;;7.35;0.68;;;18.10;1.00;;;;;;5038986;28;20137;-24
2023/07/25 12:30:53;;;;;;;4.97;0.70;;;18.30;1.00;;;;;;5052641;28;20045;-24
2023/07/25 12:33:19;;;;;;;3.00;0.60;;;18.40;1.00;;;;;;5039849;28;20048;-24
2023/07/25 12:35:45;;;;;;;2.92;0.45;;;18.40;99.90;;;;;;5056442;28;20041;-24
2023/07/25 12:38:11;;;;;;;5.50;0.57;;;18.30;94.60;;;;;;5038900;28;20148;-24
2023/07/25 12:40:37;;;;;;;2.65;0.60;;;18.60;99.90;;;;;;5033760;28;20057;-24
2023/07/25 12:43:03;;;;;;;2.95;0.60;;;19.00;1.00;;;;;;5036191;28;20047;-24
2023/07/25 12:45:28;;;;;;;3.47;0.70;;;19.40;1.00;;;;;;5039185;28;20057;-23
2023/07/25 12:47:54;;;;;;;2.00;0.30;;;19.30;99.90;;;;;;5051274;28;20407;-23
2023/07/25 12:50:20;;;;;;;1.65;0.38;;;19.00;99.90;;;;;;5036052;28;20088;-24
2023/07/25 12:52:45;;;;;;;1.83;0.50;;;19.40;99.90;;;;;;5049361;28;20084;-24
2023/07/25 12:55:13;;;;;;;3.45;0.40;;;19.60;99.90;;;;;;5054723;28;20376;-24
2023/07/25 12:57:39;;;;;;;2.38;0.85;;;19.50;51.20;;;;;;5049065;28;20131;-24
2023/07/25 13:00:06;;;;;;;1.90;0.50;;;19.40;1.00;;;;;;5046071;28;20072;-24
2023/07/25 13:02:34;;;;;;;2.05;0.80;;;19.20;29.80;;;;;;5055825;28;20134;-23
2023/07/25 13:05:00;;;;;;;2.13;0.65;;;19.40;99.90;;;;;;5054507;28;20499;-24
2023/07/25 13:07:26;;;;;;;4.53;0.65;;;19.10;99.90;;;;;;5054462;28;20123;-23
2023/07/25 13:09:56;;;;;;;0.60;0.17;;;18.70;99.90;;;;;;5055938;28;20391;-23
2023/07/25 13:12:22;;;;;;;3.15;0.47;;;18.40;99.90;;;;;;5041978;28;20041;-23
2023/07/25 13:14:48;;;;;;;1.58;0.38;;;18.30;99.90;;;;;;5035928;28;20475;-23